Time;durP1;ratioP1;P1;durP2;ratioP2;P2;SDS_P1;SDS_P2;PMS_P1;PMS_P2;Temp;Humidity;BMP_temperature;BMP_pressure;BME280_temperature;BME280_humidity;BME280_pressure;Samples;Min_cycle;Max_cycle;Signal;HPM_P1;HPM_P2
2022/02/04 00:09:24;;;;;;;8.40;6.83;;;;;;;7.29;94.07;98575.06;5012020;27;104321;-68
2022/02/04 00:20:26;;;;;;;8.97;8.07;;;;;;;7.17;94.98;98578.41;5061979;27;103178;-64
2022/02/04 00:23:12;;;;;;;7.40;6.70;;;;;;;7.21;94.89;98579.94;5067726;27;103204;-64
2022/02/04 00:25:57;;;;;;;7.70;6.93;;;;;;;7.16;95.26;98583.78;5064052;27;103949;-64
2022/02/04 00:28:37;;;;;;;7.13;6.50;;;;;;;7.02;94.93;98587.22;5061110;27;103002;-64
2022/02/04 00:31:18;;;;;;;8.43;7.67;;;;;;;6.94;95.34;98587.69;5064335;27;103193;-64
2022/02/04 00:33:49;;;;;;;7.80;7.10;;;;;;;6.95;94.82;98583.28;5063610;27;102703;-64
2022/02/04 00:36:22;;;;;;;7.57;6.77;;;;;;;7.11;94.62;98588.44;5061271;27;103735;-64
2022/02/04 00:38:54;;;;;;;6.47;5.87;;;;;;;7.08;93.39;98591.25;5049136;27;103232;-64
2022/02/04 00:41:26;;;;;;;7.20;6.40;;;;;;;7.10;93.58;98585.00;5067661;27;103015;-64
2022/02/04 00:43:56;;;;;;;6.70;6.10;;;;;;;7.11;93.37;98593.69;5070287;27;102636;-64
2022/02/04 00:46:29;;;;;;;7.10;6.23;;;;;;;7.03;93.67;98588.91;5072410;27;102627;-64
2022/02/04 00:49:19;;;;;;;7.43;5.90;;;;;;;7.01;93.57;98593.41;5076487;27;104000;-64
2022/02/04 00:51:58;;;;;;;6.90;6.20;;;;;;;7.18;92.95;98597.66;5056297;27;103231;-67
2022/02/04 00:54:40;;;;;;;6.77;6.10;;;;;;;7.05;93.13;98605.41;5074530;27;102797;-68
2022/02/04 00:57:16;;;;;;;7.60;6.13;;;;;;;7.15;93.04;98603.09;5049536;27;102971;-68
2022/02/04 01:25:51;;;;;;;5.57;5.07;;;;;;;7.28;92.15;98618.03;5050383;27;103052;-68
2022/02/04 01:27:33;;;;;;;6.00;5.40;;;;;;;7.00;92.29;98625.88;5050504;27;103156;-69
2022/02/04 01:30:04;;;;;;;5.30;4.87;;;;;;;7.12;92.28;98619.03;5049745;27;102724;-68
2022/02/04 01:32:35;;;;;;;3.73;3.43;;;;;;;7.15;92.07;98616.25;5049897;27;103187;-64
2022/02/04 01:35:03;;;;;;;6.17;5.20;;;;;;;7.08;92.14;98621.00;5048768;27;103176;-64
2022/02/04 01:37:34;;;;;;;5.47;4.97;;;;;;;7.05;92.72;98615.94;5050616;27;102707;-64
2022/02/04 01:40:02;;;;;;;5.67;4.87;;;;;;;7.05;92.59;98617.69;5049698;27;104049;-68
2022/02/04 01:42:30;;;;;;;5.33;4.83;;;;;;;6.96;92.70;98617.31;5046797;27;103804;-68
2022/02/04 01:45:01;;;;;;;7.83;4.80;;;;;;;6.99;93.18;98616.28;5051478;27;103196;-69
2022/02/04 01:47:30;;;;;;;5.70;5.17;;;;;;;7.00;93.54;98618.84;5037605;27;103428;-68
2022/02/04 01:49:59;;;;;;;5.50;5.00;;;;;;;7.06;93.33;98604.50;5033923;27;103802;-68
2022/02/04 01:52:28;;;;;;;4.47;4.07;;;;;;;7.09;93.45;98612.19;5045764;27;103343;-68
2022/02/04 01:54:58;;;;;;;6.20;5.03;;;;;;;7.13;93.24;98603.19;5047155;27;103216;-68
2022/02/04 01:57:25;;;;;;;5.17;4.63;;;;;;;6.97;93.68;98612.91;5046145;27;102679;-68
2022/02/04 01:59:53;;;;;;;5.23;4.23;;;;;;;6.99;93.66;98606.63;5050927;27;103789;-68
2022/02/04 02:02:23;;;;;;;5.40;4.50;;;;;;;7.06;93.28;98609.75;5029235;27;103525;-68
2022/02/04 02:04:51;;;;;;;5.90;4.33;;;;;;;7.06;93.32;98612.38;5047172;27;103211;-68
2022/02/04 02:07:21;;;;;;;4.60;4.20;;;;;;;7.10;93.35;98605.16;5035459;27;102740;-68
2022/02/04 02:09:56;;;;;;;4.93;4.43;;;;;;;7.13;93.04;98612.88;5040281;27;103729;-68
2022/02/04 02:12:39;;;;;;;5.10;4.60;;;;;;;7.11;92.94;98610.31;5033871;27;104180;-68
2022/02/04 02:15:17;;;;;;;3.53;3.23;;;;;;;7.22;93.45;98613.13;5048360;27;103185;-68
2022/02/04 02:45:35;;;;;;;4.03;3.63;;;;;;;7.17;96.40;98609.94;5030344;27;103952;-68
2022/02/04 02:48:19;;;;;;;4.00;3.60;;;;;;;7.07;97.69;98611.44;5045511;27;103255;-68
2022/02/04 02:51:15;;;;;;;3.20;2.90;;;;;;;7.22;97.57;98610.50;5032253;27;102815;-68
2022/02/04 02:53:58;;;;;;;4.80;3.70;;;;;;;7.27;97.26;98605.81;5035776;27;102738;-65
2022/02/04 02:57:01;;;;;;;3.63;3.33;;;;;;;7.24;96.99;98606.00;5040252;27;104056;-65
2022/02/04 02:59:34;;;;;;;6.87;3.90;;;;;;;7.18;98.51;98606.41;5055941;27;103226;-64
2022/02/04 03:02:02;;;;;;;3.57;3.17;;;;;;;7.11;98.82;98607.69;5051190;27;103403;-64
2022/02/04 03:04:30;;;;;;;3.40;3.07;;;;;;;7.22;98.64;98605.25;5049783;27;103978;-64
2022/02/04 03:06:58;;;;;;;4.57;2.90;;;;;;;7.15;99.07;98611.84;5052767;27;104097;-64
2022/02/04 03:09:26;;;;;;;3.30;3.00;;;;;;;7.18;98.88;98605.53;5058870;27;103232;-64
2022/02/04 03:11:55;;;;;;;3.33;2.90;;;;;;;7.20;98.95;98612.41;5028875;27;102690;-64
2022/02/04 03:14:27;;;;;;;4.93;4.00;;;;;;;7.08;98.18;98610.50;5052005;27;104365;-64
2022/02/04 03:16:56;;;;;;;4.53;3.70;;;;;;;7.16;98.96;98621.38;5047919;27;103227;-64
2022/02/04 03:19:28;;;;;;;4.17;3.30;;;;;;;7.20;98.82;98620.28;5049548;27;103213;-65
2022/02/04 03:22:03;;;;;;;4.60;4.20;;;;;;;7.08;99.04;98621.00;5055491;27;103114;-65
2022/02/04 03:24:32;;;;;;;4.80;4.40;;;;;;;6.89;100.00;98618.63;5047601;27;103906;-65
2022/02/04 03:27:07;;;;;;;6.77;4.60;;;;;;;6.95;100.00;98623.53;5050565;27;103657;-66
2022/02/04 03:30:00;;;;;;;5.90;3.83;;;;;;;6.97;100.00;98618.16;5048241;27;103357;-64
2022/02/04 03:32:28;;;;;;;5.20;4.70;;;;;;;6.87;100.00;98623.13;5048630;27;102578;-64
2022/02/04 03:34:56;;;;;;;4.63;3.80;;;;;;;6.91;100.00;98619.38;5053950;27;103552;-64
2022/02/04 03:37:24;;;;;;;6.13;4.83;;;;;;;6.97;100.00;98616.38;5051889;27;102968;-65
2022/02/04 03:39:52;;;;;;;5.03;4.07;;;;;;;7.07;100.00;98619.31;5048640;27;102970;-65
2022/02/04 03:42:21;;;;;;;4.37;3.97;;;;;;;7.04;100.00;98624.75;5034936;27;102950;-65
2022/02/04 03:44:49;;;;;;;6.10;4.40;;;;;;;7.07;100.00;98621.97;5055401;27;102736;-65
2022/02/04 03:47:17;;;;;;;4.80;3.67;;;;;;;7.11;100.00;98626.06;5039852;27;103880;-65
2022/02/04 03:49:45;;;;;;;4.43;4.03;;;;;;;7.09;100.00;98616.59;5048633;27;103208;-65
2022/02/04 03:52:13;;;;;;;4.20;3.80;;;;;;;6.98;100.00;98625.13;5052499;27;102598;-64
2022/02/04 03:54:40;;;;;;;4.27;3.60;;;;;;;7.09;100.00;98632.34;5053762;27;103932;-65
2022/02/04 03:57:09;;;;;;;3.50;3.20;;;;;;;7.06;100.00;98627.28;5037538;27;104161;-65
2022/02/04 03:59:38;;;;;;;5.07;4.57;;;;;;;7.07;100.00;98629.84;5061300;27;103206;-65
2022/02/04 04:02:06;;;;;;;6.77;5.17;;;;;;;6.95;100.00;98630.56;5040674;27;102947;-65
2022/02/04 04:04:35;;;;;;;4.23;3.30;;;;;;;6.97;100.00;98636.53;5043137;27;104278;-65
2022/02/04 04:07:03;;;;;;;6.13;4.53;;;;;;;7.03;100.00;98638.81;5036102;27;103102;-65
2022/02/04 04:09:33;;;;;;;5.97;4.70;;;;;;;6.84;100.00;98633.81;5056256;27;103523;-65
2022/02/04 04:12:01;;;;;;;5.10;4.53;;;;;;;6.97;100.00;98639.19;5058835;27;102861;-65
2022/02/04 04:14:29;;;;;;;4.13;3.73;;;;;;;7.09;100.00;98640.25;5055360;27;102605;-65
2022/02/04 04:16:58;;;;;;;5.27;4.80;;;;;;;6.99;100.00;98642.56;5032564;27;104294;-65
2022/02/04 04:19:29;;;;;;;5.70;3.73;;;;;;;7.08;100.00;98642.00;5042401;27;103056;-65
2022/02/04 04:21:57;;;;;;;3.60;3.23;;;;;;;7.07;100.00;98645.59;5044562;27;102545;-65
2022/02/04 04:24:25;;;;;;;3.53;3.20;;;;;;;7.17;100.00;98641.47;5050727;27;102991;-65
2022/02/04 04:26:53;;;;;;;3.83;3.50;;;;;;;7.20;100.00;98646.56;5051109;27;103687;-65
2022/02/04 04:29:21;;;;;;;4.47;4.07;;;;;;;7.17;100.00;98649.34;5051054;27;103810;-65
2022/02/04 04:31:49;;;;;;;5.37;4.87;;;;;;;7.17;100.00;98649.34;5042929;27;102909;-65
2022/02/04 04:34:19;;;;;;;4.90;4.23;;;;;;;7.16;100.00;98645.03;5042287;27;102806;-65
2022/02/04 04:36:46;;;;;;;3.77;3.47;;;;;;;7.19;100.00;98650.09;5035188;27;104209;-69
2022/02/04 04:39:20;;;;;;;3.97;3.67;;;;;;;7.20;100.00;98649.19;5046191;27;103202;-69
2022/02/04 04:41:58;;;;;;;4.03;3.63;;;;;;;7.19;100.00;98655.38;5055695;27;102592;-68
2022/02/04 04:44:56;;;;;;;4.53;4.13;;;;;;;7.12;100.00;98656.69;5054614;27;103357;-69
2022/02/04 05:27:03;;;;;;;5.97;5.37;;;;;;;6.82;100.00;98661.09;5056044;27;103793;-66
2022/02/04 05:29:29;;;;;;;4.43;4.03;;;;;;;6.94;100.00;98661.22;5053239;27;103999;-66
2022/02/04 05:32:00;;;;;;;7.20;5.20;;;;;;;6.88;100.00;98655.47;5032598;27;103962;-65
2022/02/04 05:34:28;;;;;;;5.03;3.87;;;;;;;6.93;100.00;98658.69;5049208;27;104289;-65
2022/02/04 05:37:01;;;;;;;3.87;3.57;;;;;;;6.99;100.00;98660.94;5049780;27;102599;-66
2022/02/04 05:39:37;;;;;;;4.67;4.27;;;;;;;6.89;100.00;98665.03;5036232;27;103117;-65
2022/02/04 05:42:07;;;;;;;4.47;4.07;;;;;;;6.98;100.00;98672.41;5056004;27;103261;-66
2022/02/04 05:44:39;;;;;;;4.47;4.07;;;;;;;6.99;100.00;98680.16;5050897;27;103208;-65
2022/02/04 05:47:14;;;;;;;5.03;4.33;;;;;;;6.94;100.00;98676.13;5053966;27;103081;-65
2022/02/04 05:49:49;;;;;;;5.97;4.53;;;;;;;6.97;100.00;98678.56;5044450;27;103703;-65
2022/02/04 05:52:23;;;;;;;6.50;5.90;;;;;;;6.82;100.00;98668.97;5038553;27;103264;-66
2022/02/04 05:55:06;;;;;;;5.00;4.33;;;;;;;6.95;100.00;98672.56;5053932;27;103138;-66
2022/02/04 05:57:41;;;;;;;7.13;5.47;;;;;;;6.92;100.00;98680.63;5044351;27;102719;-66
2022/02/04 06:00:23;;;;;;;5.73;5.13;;;;;;;6.91;100.00;98684.19;5049240;27;104176;-65
2022/02/04 06:03:05;;;;;;;6.63;5.97;;;;;;;6.72;100.00;98683.53;5052064;27;103291;-65
2022/02/04 06:05:52;;;;;;;5.57;5.07;;;;;;;6.72;100.00;98691.41;5039392;27;104319;-65
2022/02/04 06:08:45;;;;;;;5.50;4.97;;;;;;;6.86;100.00;98683.59;5022525;27;102778;-66
2022/02/04 06:11:28;;;;;;;7.10;6.37;;;;;;;6.70;100.00;98688.03;5026124;27;102954;-66
2022/02/04 06:14:22;;;;;;;4.97;4.57;;;;;;;6.83;100.00;98684.63;5038256;27;103265;-65
2022/02/04 06:22:23;;;;;;;5.70;5.20;;;;;;;6.91;100.00;98692.06;4976134;28;103188;-70
2022/02/04 06:24:53;;;;;;;6.33;5.73;;;;;;;6.75;100.00;98683.38;4977199;28;104118;-69
2022/02/04 06:27:25;;;;;;;4.57;4.17;;;;;;;6.77;100.00;98687.59;4985243;28;103373;-69
2022/02/04 06:29:55;;;;;;;4.37;3.97;;;;;;;6.83;100.00;98683.78;4996633;28;102762;-69
2022/02/04 06:32:24;;;;;;;4.40;3.73;;;;;;;6.80;100.00;98678.69;4993964;28;103067;-69
2022/02/04 06:34:52;;;;;;;6.43;5.57;;;;;;;6.87;100.00;98674.81;4975789;28;103357;-70
2022/02/04 06:37:21;;;;;;;5.07;4.67;;;;;;;6.89;100.00;98679.03;4994826;28;103329;-69
2022/02/04 06:39:49;;;;;;;6.37;5.77;;;;;;;6.85;100.00;98682.75;4968984;28;102664;-70
2022/02/04 06:42:24;;;;;;;6.27;5.77;;;;;;;6.69;100.00;98679.31;4986377;28;103105;-68
2022/02/04 06:44:53;;;;;;;5.60;4.77;;;;;;;6.79;100.00;98687.53;4994279;28;104381;-69
2022/02/04 06:47:21;;;;;;;5.60;5.10;;;;;;;6.63;100.00;98691.94;4984855;28;102688;-69
2022/02/04 06:49:50;;;;;;;5.13;4.63;;;;;;;6.58;100.00;98680.84;4997161;28;102645;-65
2022/02/04 06:52:18;;;;;;;4.53;4.13;;;;;;;6.58;100.00;98688.72;4994941;28;102795;-65
2022/02/04 06:54:46;;;;;;;3.40;3.10;;;;;;;6.49;100.00;98684.84;4996596;28;103324;-65
2022/02/04 06:57:14;;;;;;;3.90;3.60;;;;;;;6.42;100.00;98691.38;4998110;28;103262;-65
2022/02/04 06:59:46;;;;;;;3.77;3.47;;;;;;;6.39;100.00;98683.66;4992139;28;103363;-64
2022/02/04 07:02:15;;;;;;;3.77;3.20;;;;;;;6.48;100.00;98692.81;4990180;27;103948;-65
2022/02/04 07:04:43;;;;;;;4.20;3.83;;;;;;;6.40;100.00;98699.31;4995815;28;104044;-65
2022/02/04 07:07:13;;;;;;;3.50;3.20;;;;;;;6.45;100.00;98692.97;4994627;28;103216;-65
2022/02/04 07:09:48;;;;;;;3.93;3.50;;;;;;;6.46;100.00;98684.19;4994612;28;102618;-65
2022/02/04 07:12:23;;;;;;;4.07;3.60;;;;;;;6.54;100.00;98687.22;4993216;28;103725;-65
2022/02/04 07:15:22;;;;;;;4.20;3.70;;;;;;;6.61;100.00;98689.41;4999515;28;103293;-65
2022/02/04 07:18:03;;;;;;;4.50;4.10;;;;;;;6.61;100.00;98697.28;5001236;28;103214;-65
2022/02/04 07:20:30;;;;;;;4.20;3.90;;;;;;;6.66;100.00;98690.00;5002381;28;102646;-69
2022/02/04 07:22:58;;;;;;;4.93;4.43;;;;;;;6.63;100.00;98691.94;4998318;28;102712;-65
2022/02/04 07:25:26;;;;;;;5.30;4.80;;;;;;;6.57;100.00;98694.94;4998457;28;103053;-65
2022/02/04 07:27:57;;;;;;;5.47;4.97;;;;;;;6.54;100.00;98695.09;5001233;28;103792;-68
2022/02/04 07:30:43;;;;;;;5.13;4.63;;;;;;;6.49;100.00;98699.72;5000821;28;102583;-68
2022/02/04 07:33:16;;;;;;;6.17;4.93;;;;;;;6.57;100.00;98694.94;5002083;28;104116;-65
2022/02/04 07:38:51;;;;;;;6.17;5.57;;;;;;;6.58;100.00;98693.97;5001901;28;102880;-65
2022/02/04 07:41:22;;;;;;;6.90;6.20;;;;;;;6.64;100.00;98693.63;5002861;28;103743;-65
2022/02/04 07:43:50;;;;;;;5.57;5.07;;;;;;;6.65;100.00;98692.72;4999125;28;104083;-65
2022/02/04 07:46:20;;;;;;;6.73;6.13;;;;;;;6.60;100.00;98689.47;5001928;28;104257;-65
2022/02/04 07:48:48;;;;;;;5.83;5.20;;;;;;;6.69;100.00;98697.69;5001765;28;103191;-65
2022/02/04 07:51:19;;;;;;;6.23;5.17;;;;;;;6.68;100.00;98684.66;5002726;28;102534;-65
2022/02/04 07:53:47;;;;;;;5.27;4.77;;;;;;;6.70;100.00;98688.03;5000448;28;103719;-65
2022/02/04 07:56:20;;;;;;;7.50;6.10;;;;;;;6.56;100.00;98690.59;5000506;28;104115;-66
2022/02/04 07:59:00;;;;;;;7.70;5.83;;;;;;;6.62;100.00;98690.25;5000952;28;103193;-65
2022/02/04 08:01:30;;;;;;;5.97;5.37;;;;;;;6.68;100.00;98684.66;4999782;28;102608;-69
2022/02/04 08:04:06;;;;;;;6.70;5.43;;;;;;;6.58;100.00;98684.31;5001875;28;102857;-65
2022/02/04 08:06:39;;;;;;;6.87;5.67;;;;;;;6.61;100.00;98685.94;5001773;28;104259;-65
2022/02/04 08:09:16;;;;;;;6.13;4.80;;;;;;;7.04;100.00;98687.81;5001336;28;103259;-66
2022/02/04 08:12:08;;;;;;;8.33;5.53;;;;;;;7.04;99.01;98686.97;5004928;28;102687;-65
2022/02/04 08:14:55;;;;;;;5.17;4.77;;;;;;;7.50;96.68;98696.44;5000934;28;103923;-65
2022/02/04 08:34:39;;;;;;;6.10;4.83;;;;;;;8.79;88.14;98681.25;5003457;28;102623;-65
2022/02/04 08:48:48;;;;;;;4.43;4.03;;;;;;;10.08;82.84;98670.63;5000787;28;103759;-65
2022/02/04 08:51:32;;;;;;;4.30;3.97;;;;;;;11.59;75.34;98669.91;5004780;28;103629;-65
2022/02/04 08:54:10;;;;;;;5.03;3.97;;;;;;;13.74;65.65;98670.03;5001963;28;103363;-65
2022/02/04 08:56:46;;;;;;;3.57;3.27;;;;;;;13.82;65.05;98665.75;4998791;28;102594;-65
2022/02/04 08:59:22;;;;;;;4.10;3.70;;;;;;;11.26;73.63;98677.78;5001475;28;102673;-65
2022/02/04 09:01:58;;;;;;;4.77;4.20;;;;;;;10.73;77.95;98681.75;5002653;28;104071;-66
2022/02/04 09:04:31;;;;;;;4.50;4.10;;;;;;;10.27;80.24;98675.50;4998593;28;103971;-65
2022/02/04 09:07:07;;;;;;;5.73;3.80;;;;;;;10.61;79.67;98672.09;5005696;28;102669;-66
2022/02/04 09:09:49;;;;;;;4.83;4.33;;;;;;;10.89;77.74;98677.03;5003231;28;102721;-66
2022/02/04 09:20:57;;;;;;;4.70;4.20;;;;;;;9.15;84.33;98675.38;4999844;28;103788;-65
2022/02/04 09:23:29;;;;;;;4.03;3.67;;;;;;;9.16;82.91;98671.78;5003494;28;104104;-69
2022/02/04 09:25:58;;;;;;;3.67;2.80;;;;;;;9.42;84.54;98672.66;5002385;28;103049;-65
2022/02/04 09:28:27;;;;;;;3.87;3.30;;;;;;;9.39;83.24;98670.22;4996216;28;103107;-65
2022/02/04 09:30:55;;;;;;;3.17;2.70;;;;;;;9.06;84.34;98662.81;5002255;28;104133;-65
2022/02/04 09:33:23;;;;;;;2.93;2.73;;;;;;;9.38;83.92;98656.19;4997763;28;103318;-65
2022/02/04 09:35:51;;;;;;;3.13;2.83;;;;;;;9.66;82.10;98649.88;4998166;28;104013;-65
2022/02/04 09:38:19;;;;;;;2.47;2.27;;;;;;;10.03;80.52;98645.50;5003547;28;102771;-66
2022/02/04 09:40:55;;;;;;;2.60;2.30;;;;;;;10.41;76.82;98641.00;5002216;28;103987;-65
2022/02/04 09:43:23;;;;;;;2.30;2.10;;;;;;;10.61;77.95;98643.03;5000271;28;103896;-65
2022/02/04 09:45:52;;;;;;;2.63;2.43;;;;;;;10.96;76.71;98640.44;5002276;28;103226;-65
2022/02/04 09:48:21;;;;;;;3.53;3.23;;;;;;;10.99;75.35;98635.75;4999521;28;102733;-69
2022/02/04 09:50:53;;;;;;;3.47;3.17;;;;;;;10.54;75.95;98633.88;5003661;28;104343;-69
2022/02/04 10:04:54;;;;;;;3.10;2.80;;;;;;;9.35;80.02;98643.22;5000396;28;103300;-65
2022/02/04 10:07:34;;;;;;;3.40;3.07;;;;;;;9.39;79.65;98644.72;4999558;28;104184;-65
2022/02/04 10:13:22;;;;;;;2.23;2.03;;;;;;;9.65;78.32;98641.13;5003015;28;104047;-65
2022/02/04 10:16:18;;;;;;;2.53;1.90;;;;;;;9.73;77.46;98644.09;4995961;28;104350;-65
2022/02/04 10:18:51;;;;;;;2.17;1.97;;;;;;;9.62;77.83;98641.34;4998625;28;103242;-65
2022/02/04 10:21:19;;;;;;;2.43;1.60;;;;;;;9.47;78.09;98636.28;5002473;28;102828;-66
2022/02/04 10:23:49;;;;;;;1.80;1.70;;;;;;;9.42;78.02;98644.50;5000996;28;103028;-65
2022/02/04 10:26:18;;;;;;;2.10;1.70;;;;;;;9.65;76.52;98635.88;5000972;28;104048;-65
2022/02/04 10:28:49;;;;;;;1.77;1.67;;;;;;;9.75;76.94;98636.91;5003729;28;103266;-66
2022/02/04 10:31:21;;;;;;;2.27;1.63;;;;;;;9.78;77.72;98641.13;5001376;28;102792;-65
2022/02/04 10:34:01;;;;;;;2.10;1.90;;;;;;;9.66;76.55;98632.25;5000731;28;103816;-65
2022/02/04 10:36:34;;;;;;;1.83;1.63;;;;;;;10.21;76.90;98633.69;5002775;28;103228;-65
2022/02/04 10:39:25;;;;;;;2.33;2.10;;;;;;;10.04;75.45;98631.38;5001092;28;104302;-65
2022/02/04 10:42:23;;;;;;;2.30;2.10;;;;;;;10.01;76.58;98626.31;5001995;28;102710;-65
2022/02/04 10:45:15;;;;;;;2.80;2.50;;;;;;;10.07;77.39;98631.16;5001168;28;102831;-65
2022/02/04 10:47:58;;;;;;;2.00;1.77;;;;;;;9.20;76.92;98631.09;4998379;28;102798;-65
2022/02/04 10:51:05;;;;;;;1.80;1.67;;;;;;;9.04;77.26;98619.91;5000503;28;105230;-68
2022/02/04 10:54:03;;;;;;;1.57;1.47;;;;;;;9.12;76.37;98609.69;5001072;28;102582;-68
2022/02/04 10:59:34;;;;;;;2.90;1.10;;;;;;;8.90;77.25;98614.72;5000629;28;103247;-68
2022/02/04 11:05:07;;;;;;;2.17;1.67;;;;;;;9.11;77.17;98613.25;4966830;28;102870;-68
2022/02/04 11:10:50;;;;;;;2.27;2.07;;;;;;;8.97;77.39;98605.44;5006744;27;104105;-68
2022/02/04 11:36:40;;;;;;;1.80;1.60;;;;;;;8.92;78.16;98565.41;4999318;28;103026;-66
2022/02/04 11:52:05;;;;;;;1.47;1.20;;;;;;;8.58;77.73;98567.66;4998950;28;102634;-65
2022/02/04 11:54:43;;;;;;;1.47;1.37;;;;;;;8.65;78.31;98558.38;5001853;28;102548;-65
2022/02/04 11:57:20;;;;;;;1.40;1.30;;;;;;;8.54;77.66;98552.13;4999368;28;103742;-65
2022/02/04 11:59:55;;;;;;;1.30;1.20;;;;;;;8.65;79.09;98547.84;5000448;28;103190;-65
2022/02/04 12:02:40;;;;;;;2.23;1.40;;;;;;;8.70;78.18;98537.84;4998894;28;102613;-65
2022/02/04 12:05:29;;;;;;;2.00;1.20;;;;;;;8.81;77.46;98537.16;4999308;28;103496;-65
2022/02/04 12:08:17;;;;;;;1.37;1.23;;;;;;;8.70;77.19;98529.94;4999751;28;104235;-65
2022/02/04 12:10:52;;;;;;;3.20;1.77;;;;;;;8.87;77.89;98535.88;4998754;28;103208;-65
2022/02/04 12:13:22;;;;;;;1.93;1.20;;;;;;;8.84;75.57;98531.69;5000220;28;102711;-65
2022/02/04 12:16:07;;;;;;;1.33;1.17;;;;;;;8.73;75.38;98535.00;5002073;28;102865;-65
2022/02/04 12:19:06;;;;;;;0.80;0.80;;;;;;;8.83;74.56;98516.81;5001468;28;103029;-65
2022/02/04 12:21:48;;;;;;;1.10;1.00;;;;;;;8.87;74.51;98525.34;4999746;28;103201;-65
2022/02/04 12:24:42;;;;;;;1.07;0.93;;;;;;;9.08;74.63;98518.59;5000874;28;102647;-65
2022/02/04 12:27:30;;;;;;;1.20;1.10;;;;;;;9.25;74.80;98513.84;4998967;28;104388;-66
2022/02/04 12:30:01;;;;;;;2.20;1.00;;;;;;;9.27;74.23;98504.03;4999808;28;103918;-70
2022/02/04 12:32:30;;;;;;;1.27;1.00;;;;;;;9.22;73.72;98500.88;4999553;28;103031;-70
2022/02/04 12:34:59;;;;;;;0.70;0.70;;;;;;;8.79;73.26;98503.94;4999563;28;102621;-69
2022/02/04 12:37:27;;;;;;;1.30;0.90;;;;;;;8.62;74.71;98500.66;5001950;28;104046;-69
2022/02/04 12:39:56;;;;;;;1.33;0.90;;;;;;;8.63;73.96;98496.22;4997017;28;103945;-69
2022/02/04 12:42:27;;;;;;;0.93;0.80;;;;;;;8.73;74.68;98486.75;5000300;28;104143;-70
2022/02/04 12:44:58;;;;;;;0.70;0.70;;;;;;;8.77;75.42;98487.41;5000783;28;103023;-70
2022/02/04 12:47:32;;;;;;;0.80;0.80;;;;;;;8.97;75.21;98478.97;5000857;28;102706;-69
2022/02/04 12:50:07;;;;;;;0.80;0.80;;;;;;;8.70;75.65;98487.81;5002386;28;103518;-69
2022/02/04 12:52:43;;;;;;;1.03;0.90;;;;;;;8.76;75.40;98475.19;5000443;28;103089;-69
2022/02/04 12:55:22;;;;;;;1.00;1.00;;;;;;;8.84;75.59;98473.72;4999441;28;102692;-69
2022/02/04 12:58:11;;;;;;;1.00;0.90;;;;;;;8.98;75.92;98470.13;5003529;28;103943;-69
2022/02/04 13:12:03;;;;;;;2.13;1.03;;;;;;;9.15;75.73;98452.16;4985525;28;103335;-70
2022/02/04 13:14:32;;;;;;;1.17;1.00;;;;;;;8.80;75.57;98466.13;4996303;28;104447;-67
2022/02/04 13:17:00;;;;;;;1.70;0.90;;;;;;;8.72;76.13;98459.59;4999154;28;102815;-69
2022/02/04 13:19:29;;;;;;;1.90;1.17;;;;;;;8.91;75.82;98453.03;5000890;28;104028;-64
2022/02/04 13:21:58;;;;;;;1.30;1.20;;;;;;;8.70;75.41;98461.47;5001091;28;103400;-64
2022/02/04 13:24:26;;;;;;;1.33;1.07;;;;;;;8.78;75.24;98452.22;4999361;28;103186;-64
2022/02/04 13:26:55;;;;;;;1.30;1.20;;;;;;;8.81;75.44;98447.59;5000197;28;102686;-64
2022/02/04 13:29:27;;;;;;;1.20;1.10;;;;;;;8.66;74.90;98457.38;4995382;28;102957;-64
2022/02/04 13:31:55;;;;;;;1.30;1.20;;;;;;;8.59;75.60;98453.47;4998306;28;104262;-64
2022/02/04 13:34:27;;;;;;;1.13;1.03;;;;;;;8.70;75.71;98439.59;5001619;28;103226;-64
2022/02/04 13:37:02;;;;;;;1.27;1.17;;;;;;;8.48;74.81;98455.13;5001877;28;102654;-64
2022/02/04 13:39:43;;;;;;;1.30;1.20;;;;;;;8.47;74.90;98442.94;5004112;28;103837;-64
2022/02/04 13:42:34;;;;;;;1.10;1.00;;;;;;;8.16;74.56;98438.84;5002469;28;103703;-69
2022/02/04 13:45:09;;;;;;;1.27;1.17;;;;;;;8.35;74.41;98438.47;4995183;28;103149;-69
2022/02/04 13:47:45;;;;;;;1.40;1.20;;;;;;;8.55;73.52;98435.34;4998821;28;102653;-69
2022/02/04 13:50:25;;;;;;;1.27;1.17;;;;;;;8.47;74.23;98435.88;5001613;28;104044;-64
2022/02/04 13:53:01;;;;;;;1.77;1.20;;;;;;;8.29;74.00;98444.16;4995810;28;104219;-64
2022/02/04 13:55:39;;;;;;;1.17;1.07;;;;;;;8.39;74.01;98439.97;4983372;28;103188;-64
2022/02/04 13:58:23;;;;;;;1.17;1.07;;;;;;;8.43;73.43;98436.19;4987197;28;103869;-69
2022/02/04 14:00:59;;;;;;;0.90;0.90;;;;;;;8.49;72.83;98436.63;4982806;28;103706;-63
2022/02/04 14:03:31;;;;;;;2.00;1.10;;;;;;;8.42;72.43;98451.13;4980826;28;103784;-64
2022/02/04 14:06:03;;;;;;;1.20;1.10;;;;;;;8.35;71.89;98444.59;4991404;28;103102;-64
2022/02/04 14:08:44;;;;;;;1.30;1.20;;;;;;;8.29;72.35;98446.78;4990196;28;102688;-69
2022/02/04 14:11:14;;;;;;;1.10;1.00;;;;;;;8.32;72.81;98442.16;4987413;28;103758;-69
2022/02/04 14:14:04;;;;;;;1.30;1.20;;;;;;;8.48;72.55;98426.16;4991084;28;104113;-69
2022/02/04 14:16:35;;;;;;;1.20;1.10;;;;;;;8.56;71.51;98423.88;4988935;28;103237;-70
2022/02/04 14:19:03;;;;;;;1.20;1.10;;;;;;;8.61;71.63;98414.72;4993939;28;102924;-69
2022/02/04 14:21:33;;;;;;;1.20;1.10;;;;;;;8.48;71.50;98424.38;4992180;28;104394;-69
2022/02/04 14:24:09;;;;;;;0.87;0.83;;;;;;;8.56;72.11;98411.53;4978508;28;105266;-68
2022/02/04 14:26:44;;;;;;;1.63;1.10;;;;;;;8.66;71.80;98412.59;4989620;28;104462;-69
2022/02/04 14:29:21;;;;;;;1.30;0.90;;;;;;;8.68;71.13;98405.44;4993186;28;102905;-69
2022/02/04 14:31:56;;;;;;;1.33;1.00;;;;;;;8.51;70.90;98411.00;4993719;28;102738;-69
2022/02/04 14:34:50;;;;;;;1.20;1.00;;;;;;;8.50;70.48;98409.34;4977512;28;103042;-69
2022/02/04 14:37:34;;;;;;;2.17;0.97;;;;;;;8.35;71.31;98423.53;4997747;28;103990;-69
2022/02/04 14:51:38;;;;;;;0.93;0.80;;;;;;;8.59;70.86;98406.06;4997513;28;102700;-62
2022/02/04 14:54:12;;;;;;;1.30;0.90;;;;;;;8.63;71.81;98404.06;4998043;28;102709;-63
2022/02/04 15:02:13;;;;;;;0.70;0.70;;;;;;;8.43;71.68;98394.91;4979415;28;102999;-64
2022/02/04 15:04:46;;;;;;;1.53;0.90;;;;;;;8.50;71.72;98396.19;4999546;28;103879;-63
2022/02/04 15:07:15;;;;;;;0.70;0.70;;;;;;;8.32;71.73;98386.03;4977780;28;103910;-63
2022/02/04 15:09:51;;;;;;;0.63;0.63;;;;;;;8.16;71.70;98386.22;4998580;28;103210;-63
2022/02/04 15:12:19;;;;;;;0.70;0.60;;;;;;;8.39;72.19;98377.66;4980569;28;103983;-63
2022/02/04 15:14:47;;;;;;;0.70;0.70;;;;;;;8.36;72.26;98377.84;5000666;28;103934;-69
2022/02/04 15:17:19;;;;;;;1.00;0.73;;;;;;;8.40;72.16;98367.94;4998416;28;104154;-64
2022/02/04 15:19:49;;;;;;;1.10;0.97;;;;;;;8.26;71.96;98366.22;4980879;28;103037;-63
2022/02/04 15:22:22;;;;;;;0.70;0.70;;;;;;;8.20;71.81;98366.63;4982813;28;103192;-63
2022/02/04 15:24:55;;;;;;;0.80;0.70;;;;;;;8.15;72.12;98372.22;5001946;28;103747;-63
2022/02/04 15:27:27;;;;;;;0.80;0.70;;;;;;;8.23;72.30;98362.94;4992495;28;103776;-63
2022/02/04 15:29:58;;;;;;;0.93;0.80;;;;;;;8.32;71.94;98365.84;5001640;28;103214;-63
2022/02/04 15:32:29;;;;;;;1.10;0.90;;;;;;;8.15;73.02;98374.00;4984130;28;102829;-63
2022/02/04 15:34:57;;;;;;;1.60;0.70;;;;;;;8.03;72.92;98374.81;5001773;28;103835;-63
2022/02/04 15:37:25;;;;;;;1.07;0.80;;;;;;;8.04;73.63;98372.09;5000433;28;103577;-63
2022/02/04 15:39:53;;;;;;;0.50;0.50;;;;;;;8.10;73.78;98365.56;4994838;28;103746;-63
2022/02/04 15:42:23;;;;;;;0.90;0.77;;;;;;;8.02;73.64;98352.09;4984170;28;102777;-63
2022/02/04 15:45:11;;;;;;;0.90;0.67;;;;;;;8.01;73.59;98366.19;4978802;28;103018;-63
2022/02/04 15:47:54;;;;;;;1.10;0.60;;;;;;;7.89;73.71;98361.75;4977094;28;104137;-63
2022/02/04 15:50:30;;;;;;;0.97;0.60;;;;;;;8.08;74.04;98360.41;4998819;28;103048;-63
2022/02/04 15:53:17;;;;;;;0.60;0.57;;;;;;;8.04;73.72;98364.19;4995073;28;102568;-64
2022/02/04 15:56:08;;;;;;;1.37;0.70;;;;;;;7.93;74.03;98353.56;4992129;28;102577;-68
2022/02/04 15:58:55;;;;;;;0.83;0.80;;;;;;;7.94;74.40;98349.16;4994565;28;103283;-67
2022/02/04 16:01:31;;;;;;;1.03;0.93;;;;;;;8.12;74.07;98340.84;4990877;28;103284;-67
2022/02/04 16:04:19;;;;;;;1.03;0.93;;;;;;;8.12;74.13;98347.88;4996641;28;102604;-68
2022/02/04 16:06:48;;;;;;;0.97;0.80;;;;;;;8.13;74.60;98333.81;4996316;28;103876;-68